sensor_id;sensor_type;location;lat;lon;timestamp;P1;durP1;ratioP1;P2;durP2;ratioP2
37365;SDS011;23239;51.504;7.456;2023-02-02T00:00:00;13.2;;;3.3;;
37365;SDS011;23239;51.504;7.456;2023-02-02T00:01:00;10.8;;;3.0;;
37365;SDS011;23239;51.504;7.456;2023-02-02T00:02:00;10.8;;;3.0;;
37365;SDS011;23239;51.504;7.456;2023-02-02T00:03:00;10.8;;;3.0;;
37365;SDS011;23239;51.504;7.456;2023-02-02T00:04:00;10.8;;;3.0;;
37365;SDS011;23239;51.504;7.456;2023-02-02T00:05:00;10.8;;;3.0;;
37365;SDS011;23239;51.504;7.456;2023-02-02T00:06:00;12.2;;;3.2;;
37365;SDS011;23239;51.504;7.456;2023-02-02T00:07:00;12.2;;;3.2;;
37365;SDS011;23239;51.504;7.456;2023-02-02T00:08:00;12.2;;;3.2;;
37365;SDS011;23239;51.504;7.456;2023-02-02T00:09:00;12.2;;;3.2;;
37365;SDS011;23239;51.504;7.456;2023-02-02T00:10:00;12.2;;;3.2;;
37365;SDS011;23239;51.504;7.456;2023-02-02T00:11:00;11.4;;;3.6;;
37365;SDS011;23239;51.504;7.456;2023-02-02T00:12:00;11.4;;;3.6;;
37365;SDS011;23239;51.504;7.456;2023-02-02T00:13:00;11.4;;;3.6;;
37365;SDS011;23239;51.504;7.456;2023-02-02T00:14:00;11.4;;;3.6;;
37365;SDS011;23239;51.504;7.456;2023-02-02T00:15:00;11.4;;;3.6;;
37365;SDS011;23239;51.504;7.456;2023-02-02T00:17:00;14.2;;;3.3;;
37365;SDS011;23239;51.504;7.456;2023-02-02T00:18:00;14.2;;;3.3;;
37365;SDS011;23239;51.504;7.456;2023-02-02T00:19:00;14.2;;;3.3;;
37365;SDS011;23239;51.504;7.456;2023-02-02T00:20:00;14.2;;;3.3;;
37365;SDS011;23239;51.504;7.456;2023-02-02T00:21:00;14.2;;;3.2;;
37365;SDS011;23239;51.504;7.456;2023-02-02T00:22:00;14.2;;;3.2;;
37365;SDS011;23239;51.504;7.456;2023-02-02T00:23:00;14.2;;;3.2;;
37365;SDS011;23239;51.504;7.456;2023-02-02T00:24:00;14.2;;;3.2;;
37365;SDS011;23239;51.504;7.456;2023-02-02T00:25:00;14.2;;;3.2;;
37365;SDS011;23239;51.504;7.456;2023-02-02T00:26:00;12.6;;;3.6;;
37365;SDS011;23239;51.504;7.456;2023-02-02T00:27:00;12.6;;;3.6;;
37365;SDS011;23239;51.504;7.456;2023-02-02T00:28:00;12.6;;;3.6;;
37365;SDS011;23239;51.504;7.456;2023-02-02T00:29:00;12.6;;;3.6;;
37365;SDS011;23239;51.504;7.456;2023-02-02T00:30:00;12.6;;;3.6;;
37365;SDS011;23239;51.504;7.456;2023-02-02T00:31:00;10.8;;;3.2;;
37365;SDS011;23239;51.504;7.456;2023-02-02T00:32:00;10.8;;;3.2;;
37365;SDS011;23239;51.504;7.456;2023-02-02T00:33:00;10.8;;;3.2;;
37365;SDS011;23239;51.504;7.456;2023-02-02T00:34:00;10.8;;;3.2;;
37365;SDS011;23239;51.504;7.456;2023-02-02T00:35:00;10.8;;;3.2;;
37365;SDS011;23239;51.504;7.456;2023-02-02T00:36:00;11.5;;;3.8;;
37365;SDS011;23239;51.504;7.456;2023-02-02T00:37:00;11.5;;;3.8;;
37365;SDS011;23239;51.504;7.456;2023-02-02T00:38:00;11.5;;;3.8;;
37365;SDS011;23239;51.504;7.456;2023-02-02T00:39:00;11.5;;;3.8;;
37365;SDS011;23239;51.504;7.456;2023-02-02T00:40:00;11.5;;;3.8;;
37365;SDS011;23239;51.504;7.456;2023-02-02T00:41:00;14.0;;;4.2;;
37365;SDS011;23239;51.504;7.456;2023-02-02T00:42:00;14.0;;;4.2;;
37365;SDS011;23239;51.504;7.456;2023-02-02T00:43:00;14.0;;;4.2;;
37365;SDS011;23239;51.504;7.456;2023-02-02T00:44:00;14.0;;;4.2;;
37365;SDS011;23239;51.504;7.456;2023-02-02T00:45:00;14.0;;;4.2;;
37365;SDS011;23239;51.504;7.456;2023-02-02T00:46:00;14.5;;;4.5;;
37365;SDS011;23239;51.504;7.456;2023-02-02T00:47:00;14.5;;;4.5;;
37365;SDS011;23239;51.504;7.456;2023-02-02T00:48:00;14.5;;;4.5;;
37365;SDS011;23239;51.504;7.456;2023-02-02T00:49:00;14.5;;;4.5;;
37365;SDS011;23239;51.504;7.456;2023-02-02T00:50:00;14.5;;;4.5;;
37365;SDS011;23239;51.504;7.456;2023-02-02T00:51:00;14.2;;;4.3;;
37365;SDS011;23239;51.504;7.456;2023-02-02T00:52:00;14.2;;;4.3;;
37365;SDS011;23239;51.504;7.456;2023-02-02T00:53:00;14.2;;;4.3;;
37365;SDS011;23239;51.504;7.456;2023-02-02T00:54:00;14.2;;;4.3;;
37365;SDS011;23239;51.504;7.456;2023-02-02T00:55:00;14.2;;;4.3;;
37365;SDS011;23239;51.504;7.456;2023-02-02T00:56:00;12.7;;;4.8;;
37365;SDS011;23239;51.504;7.456;2023-02-02T00:57:00;12.7;;;4.8;;
37365;SDS011;23239;51.504;7.456;2023-02-02T00:58:00;12.7;;;4.8;;
37365;SDS011;23239;51.504;7.456;2023-02-02T00:59:00;12.7;;;4.8;;
37365;SDS011;23239;51.504;7.456;2023-02-02T01:00:00;12.7;;;4.8;;
37365;SDS011;23239;51.504;7.456;2023-02-02T01:01:00;15.4;;;6.4;;
37365;SDS011;23239;51.504;7.456;2023-02-02T01:02:00;15.4;;;6.4;;
37365;SDS011;23239;51.504;7.456;2023-02-02T01:03:00;15.4;;;6.4;;
37365;SDS011;23239;51.504;7.456;2023-02-02T01:04:00;15.4;;;6.4;;
37365;SDS011;23239;51.504;7.456;2023-02-02T01:05:00;15.4;;;6.4;;
37365;SDS011;23239;51.504;7.456;2023-02-02T01:06:00;15.2;;;6.5;;
37365;SDS011;23239;51.504;7.456;2023-02-02T01:07:00;15.2;;;6.5;;
37365;SDS011;23239;51.504;7.456;2023-02-02T01:08:00;15.2;;;6.5;;
37365;SDS011;23239;51.504;7.456;2023-02-02T01:09:00;15.2;;;6.5;;
37365;SDS011;23239;51.504;7.456;2023-02-02T01:10:00;15.2;;;6.5;;
37365;SDS011;23239;51.504;7.456;2023-02-02T01:11:00;17.9;;;9.1;;
37365;SDS011;23239;51.504;7.456;2023-02-02T01:12:00;17.9;;;9.1;;
37365;SDS011;23239;51.504;7.456;2023-02-02T01:13:00;17.9;;;9.1;;
37365;SDS011;23239;51.504;7.456;2023-02-02T01:14:00;17.9;;;9.1;;
37365;SDS011;23239;51.504;7.456;2023-02-02T01:15:00;17.9;;;9.1;;
37365;SDS011;23239;51.504;7.456;2023-02-02T01:16:00;19.9;;;9.7;;
37365;SDS011;23239;51.504;7.456;2023-02-02T01:17:00;19.9;;;9.7;;
37365;SDS011;23239;51.504;7.456;2023-02-02T01:18:00;19.9;;;9.7;;
37365;SDS011;23239;51.504;7.456;2023-02-02T01:19:00;19.9;;;9.7;;
37365;SDS011;23239;51.504;7.456;2023-02-02T01:20:00;19.9;;;9.7;;
37365;SDS011;23239;51.504;7.456;2023-02-02T01:21:01;19.8;;;10.8;;
37365;SDS011;23239;51.504;7.456;2023-02-02T01:22:00;19.8;;;10.8;;
37365;SDS011;23239;51.504;7.456;2023-02-02T01:23:00;19.8;;;10.8;;
37365;SDS011;23239;51.504;7.456;2023-02-02T01:24:00;19.8;;;10.8;;
37365;SDS011;23239;51.504;7.456;2023-02-02T01:25:00;19.8;;;10.8;;
37365;SDS011;23239;51.504;7.456;2023-02-02T01:26:00;21.4;;;12.3;;
37365;SDS011;23239;51.504;7.456;2023-02-02T01:27:00;21.4;;;12.3;;
37365;SDS011;23239;51.504;7.456;2023-02-02T01:28:00;21.4;;;12.3;;
37365;SDS011;23239;51.504;7.456;2023-02-02T01:29:00;21.4;;;12.3;;
37365;SDS011;23239;51.504;7.456;2023-02-02T01:30:00;21.4;;;12.3;;
37365;SDS011;23239;51.504;7.456;2023-02-02T01:31:04;16.2;;;8.2;;
37365;SDS011;23239;51.504;7.456;2023-02-02T01:32:00;16.2;;;8.2;;
37365;SDS011;23239;51.504;7.456;2023-02-02T01:33:00;16.2;;;8.2;;
37365;SDS011;23239;51.504;7.456;2023-02-02T01:34:00;16.2;;;8.2;;
37365;SDS011;23239;51.504;7.456;2023-02-02T01:35:00;16.2;;;8.2;;
37365;SDS011;23239;51.504;7.456;2023-02-02T01:36:02;15.3;;;6.4;;
37365;SDS011;23239;51.504;7.456;2023-02-02T01:37:00;15.3;;;6.4;;
37365;SDS011;23239;51.504;7.456;2023-02-02T01:38:00;15.3;;;6.4;;
37365;SDS011;23239;51.504;7.456;2023-02-02T01:39:00;15.3;;;6.4;;
37365;SDS011;23239;51.504;7.456;2023-02-02T01:40:00;15.3;;;6.4;;
37365;SDS011;23239;51.504;7.456;2023-02-02T01:41:00;20.6;;;8.3;;
37365;SDS011;23239;51.504;7.456;2023-02-02T01:42:00;20.6;;;8.3;;
37365;SDS011;23239;51.504;7.456;2023-02-02T01:43:00;20.6;;;8.3;;
37365;SDS011;23239;51.504;7.456;2023-02-02T01:44:01;20.6;;;8.3;;
37365;SDS011;23239;51.504;7.456;2023-02-02T01:45:04;20.6;;;8.3;;
37365;SDS011;23239;51.504;7.456;2023-02-02T01:46:00;14.3;;;6.6;;
37365;SDS011;23239;51.504;7.456;2023-02-02T01:47:00;14.3;;;6.6;;
37365;SDS011;23239;51.504;7.456;2023-02-02T01:48:00;14.3;;;6.6;;
37365;SDS011;23239;51.504;7.456;2023-02-02T01:49:01;14.3;;;6.6;;
37365;SDS011;23239;51.504;7.456;2023-02-02T01:50:00;14.3;;;6.6;;
37365;SDS011;23239;51.504;7.456;2023-02-02T01:51:01;17.0;;;6.7;;
37365;SDS011;23239;51.504;7.456;2023-02-02T01:52:00;17.0;;;6.7;;
37365;SDS011;23239;51.504;7.456;2023-02-02T01:53:00;17.0;;;6.7;;
37365;SDS011;23239;51.504;7.456;2023-02-02T01:54:00;17.0;;;6.7;;
37365;SDS011;23239;51.504;7.456;2023-02-02T01:55:01;17.0;;;6.7;;
37365;SDS011;23239;51.504;7.456;2023-02-02T01:56:00;13.7;;;6.1;;
37365;SDS011;23239;51.504;7.456;2023-02-02T01:57:01;13.7;;;6.1;;
37365;SDS011;23239;51.504;7.456;2023-02-02T01:58:01;13.7;;;6.1;;
37365;SDS011;23239;51.504;7.456;2023-02-02T01:59:00;13.7;;;6.1;;
37365;SDS011;23239;51.504;7.456;2023-02-02T02:00:00;13.7;;;6.1;;
37365;SDS011;23239;51.504;7.456;2023-02-02T02:01:00;11.9;;;5.7;;
37365;SDS011;23239;51.504;7.456;2023-02-02T02:02:00;11.9;;;5.7;;
37365;SDS011;23239;51.504;7.456;2023-02-02T02:03:01;11.9;;;5.7;;
37365;SDS011;23239;51.504;7.456;2023-02-02T02:04:00;11.9;;;5.7;;
37365;SDS011;23239;51.504;7.456;2023-02-02T02:05:00;11.9;;;5.7;;
37365;SDS011;23239;51.504;7.456;2023-02-02T02:06:02;15.7;;;6.9;;
37365;SDS011;23239;51.504;7.456;2023-02-02T02:07:00;15.7;;;6.9;;
37365;SDS011;23239;51.504;7.456;2023-02-02T02:08:02;15.7;;;6.9;;
37365;SDS011;23239;51.504;7.456;2023-02-02T02:09:01;15.7;;;6.9;;
37365;SDS011;23239;51.504;7.456;2023-02-02T02:10:00;15.7;;;6.9;;
37365;SDS011;23239;51.504;7.456;2023-02-02T02:11:00;15.6;;;7.6;;
37365;SDS011;23239;51.504;7.456;2023-02-02T02:12:00;15.6;;;7.6;;
37365;SDS011;23239;51.504;7.456;2023-02-02T02:13:00;15.6;;;7.6;;
37365;SDS011;23239;51.504;7.456;2023-02-02T02:14:01;15.6;;;7.6;;
37365;SDS011;23239;51.504;7.456;2023-02-02T02:15:00;15.6;;;7.6;;
37365;SDS011;23239;51.504;7.456;2023-02-02T02:16:03;20.1;;;8.5;;
37365;SDS011;23239;51.504;7.456;2023-02-02T02:17:05;20.1;;;8.5;;
37365;SDS011;23239;51.504;7.456;2023-02-02T02:18:03;20.1;;;8.5;;
37365;SDS011;23239;51.504;7.456;2023-02-02T02:19:02;20.1;;;8.5;;
37365;SDS011;23239;51.504;7.456;2023-02-02T02:22:01;18.0;;;8.0;;
37365;SDS011;23239;51.504;7.456;2023-02-02T02:26:06;17.6;;;7.2;;
37365;SDS011;23239;51.504;7.456;2023-02-02T02:27:06;17.6;;;7.2;;
37365;SDS011;23239;51.504;7.456;2023-02-02T02:28:06;17.6;;;7.2;;
37365;SDS011;23239;51.504;7.456;2023-02-02T02:29:08;17.6;;;7.2;;
37365;SDS011;23239;51.504;7.456;2023-02-02T02:30:06;17.6;;;7.2;;
37365;SDS011;23239;51.504;7.456;2023-02-02T02:31:08;16.6;;;8.0;;
37365;SDS011;23239;51.504;7.456;2023-02-02T02:32:03;16.6;;;8.0;;
37365;SDS011;23239;51.504;7.456;2023-02-02T02:33:01;16.6;;;8.0;;
37365;SDS011;23239;51.504;7.456;2023-02-02T02:34:01;16.6;;;8.0;;
37365;SDS011;23239;51.504;7.456;2023-02-02T02:35:01;16.6;;;8.0;;
37365;SDS011;23239;51.504;7.456;2023-02-02T02:36:01;18.2;;;9.2;;
37365;SDS011;23239;51.504;7.456;2023-02-02T02:37:03;18.2;;;9.2;;
37365;SDS011;23239;51.504;7.456;2023-02-02T02:38:01;18.2;;;9.2;;
37365;SDS011;23239;51.504;7.456;2023-02-02T02:39:04;18.2;;;9.2;;
37365;SDS011;23239;51.504;7.456;2023-02-02T02:40:02;18.2;;;9.2;;
37365;SDS011;23239;51.504;7.456;2023-02-02T02:41:01;24.6;;;12.1;;
37365;SDS011;23239;51.504;7.456;2023-02-02T02:42:03;24.6;;;12.1;;
37365;SDS011;23239;51.504;7.456;2023-02-02T02:43:01;24.6;;;12.1;;
37365;SDS011;23239;51.504;7.456;2023-02-02T02:44:03;24.6;;;12.1;;
37365;SDS011;23239;51.504;7.456;2023-02-02T02:45:00;24.6;;;12.1;;
37365;SDS011;23239;51.504;7.456;2023-02-02T02:46:00;23.2;;;11.1;;
37365;SDS011;23239;51.504;7.456;2023-02-02T02:47:00;23.2;;;11.1;;
37365;SDS011;23239;51.504;7.456;2023-02-02T02:48:01;23.2;;;11.1;;
37365;SDS011;23239;51.504;7.456;2023-02-02T02:49:00;23.2;;;11.1;;
37365;SDS011;23239;51.504;7.456;2023-02-02T02:50:00;23.2;;;11.1;;
37365;SDS011;23239;51.504;7.456;2023-02-02T02:51:08;25.5;;;13.5;;
37365;SDS011;23239;51.504;7.456;2023-02-02T02:52:00;25.5;;;13.5;;
37365;SDS011;23239;51.504;7.456;2023-02-02T02:53:02;25.5;;;13.5;;
37365;SDS011;23239;51.504;7.456;2023-02-02T02:54:00;25.5;;;13.5;;
37365;SDS011;23239;51.504;7.456;2023-02-02T02:55:00;25.5;;;13.5;;
37365;SDS011;23239;51.504;7.456;2023-02-02T02:56:02;28.6;;;14.8;;
37365;SDS011;23239;51.504;7.456;2023-02-02T02:57:05;28.6;;;14.8;;
37365;SDS011;23239;51.504;7.456;2023-02-02T02:58:03;28.6;;;14.8;;
37365;SDS011;23239;51.504;7.456;2023-02-02T02:59:01;28.6;;;14.8;;
37365;SDS011;23239;51.504;7.456;2023-02-02T03:00:02;28.6;;;14.8;;
37365;SDS011;23239;51.504;7.456;2023-02-02T03:01:02;28.3;;;15.3;;
37365;SDS011;23239;51.504;7.456;2023-02-02T03:02:03;28.3;;;15.3;;
37365;SDS011;23239;51.504;7.456;2023-02-02T03:03:02;28.3;;;15.3;;
37365;SDS011;23239;51.504;7.456;2023-02-02T03:04:04;28.3;;;15.3;;
37365;SDS011;23239;51.504;7.456;2023-02-02T03:05:04;28.3;;;15.3;;
37365;SDS011;23239;51.504;7.456;2023-02-02T03:06:02;27.5;;;12.8;;
37365;SDS011;23239;51.504;7.456;2023-02-02T03:07:01;27.5;;;12.8;;
37365;SDS011;23239;51.504;7.456;2023-02-02T03:08:03;27.5;;;12.8;;
37365;SDS011;23239;51.504;7.456;2023-02-02T03:09:02;27.5;;;12.8;;
37365;SDS011;23239;51.504;7.456;2023-02-02T03:10:00;27.5;;;12.8;;
37365;SDS011;23239;51.504;7.456;2023-02-02T03:11:00;27.4;;;12.7;;
37365;SDS011;23239;51.504;7.456;2023-02-02T03:12:00;27.4;;;12.7;;
37365;SDS011;23239;51.504;7.456;2023-02-02T03:13:00;27.4;;;12.7;;
37365;SDS011;23239;51.504;7.456;2023-02-02T03:14:00;27.4;;;12.7;;
37365;SDS011;23239;51.504;7.456;2023-02-02T03:15:03;27.4;;;12.7;;
37365;SDS011;23239;51.504;7.456;2023-02-02T03:16:00;26.8;;;11.1;;
37365;SDS011;23239;51.504;7.456;2023-02-02T03:17:00;26.8;;;11.1;;
37365;SDS011;23239;51.504;7.456;2023-02-02T03:18:00;26.8;;;11.1;;
37365;SDS011;23239;51.504;7.456;2023-02-02T03:19:00;26.8;;;11.1;;
37365;SDS011;23239;51.504;7.456;2023-02-02T03:20:00;26.8;;;11.1;;
37365;SDS011;23239;51.504;7.456;2023-02-02T03:21:00;30.1;;;12.1;;
37365;SDS011;23239;51.504;7.456;2023-02-02T03:22:00;30.1;;;12.1;;
37365;SDS011;23239;51.504;7.456;2023-02-02T03:23:00;30.1;;;12.1;;
37365;SDS011;23239;51.504;7.456;2023-02-02T03:24:00;30.1;;;12.1;;
37365;SDS011;23239;51.504;7.456;2023-02-02T03:25:00;30.1;;;12.1;;
37365;SDS011;23239;51.504;7.456;2023-02-02T03:26:00;27.7;;;10.1;;
37365;SDS011;23239;51.504;7.456;2023-02-02T03:27:00;27.7;;;10.1;;
37365;SDS011;23239;51.504;7.456;2023-02-02T03:28:00;27.7;;;10.1;;
37365;SDS011;23239;51.504;7.456;2023-02-02T03:29:00;27.7;;;10.1;;
37365;SDS011;23239;51.504;7.456;2023-02-02T03:30:00;27.7;;;10.1;;
37365;SDS011;23239;51.504;7.456;2023-02-02T03:31:00;30.1;;;9.8;;
37365;SDS011;23239;51.504;7.456;2023-02-02T03:32:00;30.1;;;9.8;;
37365;SDS011;23239;51.504;7.456;2023-02-02T03:33:00;30.1;;;9.8;;
37365;SDS011;23239;51.504;7.456;2023-02-02T03:34:00;30.1;;;9.8;;
37365;SDS011;23239;51.504;7.456;2023-02-02T03:35:00;30.1;;;9.8;;
37365;SDS011;23239;51.504;7.456;2023-02-02T03:36:00;25.9;;;8.7;;
37365;SDS011;23239;51.504;7.456;2023-02-02T03:37:00;25.9;;;8.7;;
37365;SDS011;23239;51.504;7.456;2023-02-02T03:38:00;25.9;;;8.7;;
37365;SDS011;23239;51.504;7.456;2023-02-02T03:39:00;25.9;;;8.7;;
37365;SDS011;23239;51.504;7.456;2023-02-02T03:40:00;25.9;;;8.7;;
37365;SDS011;23239;51.504;7.456;2023-02-02T03:41:00;22.2;;;7.1;;
37365;SDS011;23239;51.504;7.456;2023-02-02T03:42:00;22.2;;;7.1;;
37365;SDS011;23239;51.504;7.456;2023-02-02T03:43:00;22.2;;;7.1;;
37365;SDS011;23239;51.504;7.456;2023-02-02T03:44:00;22.2;;;7.1;;
37365;SDS011;23239;51.504;7.456;2023-02-02T03:45:00;22.2;;;7.1;;
37365;SDS011;23239;51.504;7.456;2023-02-02T03:46:01;25.6;;;7.6;;
37365;SDS011;23239;51.504;7.456;2023-02-02T03:47:00;25.6;;;7.6;;
37365;SDS011;23239;51.504;7.456;2023-02-02T03:48:01;25.6;;;7.6;;
37365;SDS011;23239;51.504;7.456;2023-02-02T03:49:00;25.6;;;7.6;;
37365;SDS011;23239;51.504;7.456;2023-02-02T03:50:00;25.6;;;7.6;;
37365;SDS011;23239;51.504;7.456;2023-02-02T03:51:01;18.9;;;6.2;;
37365;SDS011;23239;51.504;7.456;2023-02-02T03:52:00;18.9;;;6.2;;
37365;SDS011;23239;51.504;7.456;2023-02-02T03:53:00;18.9;;;6.2;;
37365;SDS011;23239;51.504;7.456;2023-02-02T03:54:00;18.9;;;6.2;;
37365;SDS011;23239;51.504;7.456;2023-02-02T03:55:00;18.9;;;6.2;;
37365;SDS011;23239;51.504;7.456;2023-02-02T03:56:00;18.2;;;5.6;;
37365;SDS011;23239;51.504;7.456;2023-02-02T03:57:00;18.2;;;5.6;;
37365;SDS011;23239;51.504;7.456;2023-02-02T03:58:00;18.2;;;5.6;;
37365;SDS011;23239;51.504;7.456;2023-02-02T03:59:00;18.2;;;5.6;;
37365;SDS011;23239;51.504;7.456;2023-02-02T04:00:00;18.2;;;5.6;;
37365;SDS011;23239;51.504;7.456;2023-02-02T04:01:01;14.1;;;4.9;;
37365;SDS011;23239;51.504;7.456;2023-02-02T04:02:00;14.1;;;4.9;;
37365;SDS011;23239;51.504;7.456;2023-02-02T04:03:00;14.1;;;4.9;;
37365;SDS011;23239;51.504;7.456;2023-02-02T04:04:00;14.1;;;4.9;;
37365;SDS011;23239;51.504;7.456;2023-02-02T04:05:00;14.1;;;4.9;;
37365;SDS011;23239;51.504;7.456;2023-02-02T04:06:00;15.6;;;4.3;;
37365;SDS011;23239;51.504;7.456;2023-02-02T04:07:00;15.6;;;4.3;;
37365;SDS011;23239;51.504;7.456;2023-02-02T04:08:00;15.6;;;4.3;;
37365;SDS011;23239;51.504;7.456;2023-02-02T04:09:00;15.6;;;4.3;;
37365;SDS011;23239;51.504;7.456;2023-02-02T04:10:00;15.6;;;4.3;;
37365;SDS011;23239;51.504;7.456;2023-02-02T04:11:00;15.0;;;4.3;;
37365;SDS011;23239;51.504;7.456;2023-02-02T04:12:00;15.0;;;4.3;;
37365;SDS011;23239;51.504;7.456;2023-02-02T04:13:00;15.0;;;4.3;;
37365;SDS011;23239;51.504;7.456;2023-02-02T04:14:00;15.0;;;4.3;;
37365;SDS011;23239;51.504;7.456;2023-02-02T04:15:00;15.0;;;4.3;;
37365;SDS011;23239;51.504;7.456;2023-02-02T04:16:00;16.6;;;4.2;;
37365;SDS011;23239;51.504;7.456;2023-02-02T04:17:00;16.6;;;4.2;;
37365;SDS011;23239;51.504;7.456;2023-02-02T04:18:00;16.6;;;4.2;;
37365;SDS011;23239;51.504;7.456;2023-02-02T04:19:00;16.6;;;4.2;;
37365;SDS011;23239;51.504;7.456;2023-02-02T04:20:00;16.6;;;4.2;;
37365;SDS011;23239;51.504;7.456;2023-02-02T04:21:00;14.2;;;4.7;;
37365;SDS011;23239;51.504;7.456;2023-02-02T04:22:00;14.2;;;4.7;;
37365;SDS011;23239;51.504;7.456;2023-02-02T04:23:00;14.2;;;4.7;;
37365;SDS011;23239;51.504;7.456;2023-02-02T04:24:00;14.2;;;4.7;;
37365;SDS011;23239;51.504;7.456;2023-02-02T04:25:00;14.2;;;4.7;;
37365;SDS011;23239;51.504;7.456;2023-02-02T04:26:00;15.9;;;4.8;;
37365;SDS011;23239;51.504;7.456;2023-02-02T04:27:00;15.9;;;4.8;;
37365;SDS011;23239;51.504;7.456;2023-02-02T04:28:00;15.9;;;4.8;;
37365;SDS011;23239;51.504;7.456;2023-02-02T04:29:00;15.9;;;4.8;;
37365;SDS011;23239;51.504;7.456;2023-02-02T04:30:00;15.9;;;4.8;;
37365;SDS011;23239;51.504;7.456;2023-02-02T04:31:00;16.0;;;4.7;;
37365;SDS011;23239;51.504;7.456;2023-02-02T04:32:00;16.0;;;4.7;;
37365;SDS011;23239;51.504;7.456;2023-02-02T04:33:00;16.0;;;4.7;;
37365;SDS011;23239;51.504;7.456;2023-02-02T04:34:00;16.0;;;4.7;;
37365;SDS011;23239;51.504;7.456;2023-02-02T04:35:00;16.0;;;4.7;;
37365;SDS011;23239;51.504;7.456;2023-02-02T04:36:00;15.0;;;5.3;;
37365;SDS011;23239;51.504;7.456;2023-02-02T04:37:00;15.0;;;5.3;;
37365;SDS011;23239;51.504;7.456;2023-02-02T04:38:00;15.0;;;5.3;;
37365;SDS011;23239;51.504;7.456;2023-02-02T04:39:00;15.0;;;5.3;;
37365;SDS011;23239;51.504;7.456;2023-02-02T04:40:00;15.0;;;5.3;;
37365;SDS011;23239;51.504;7.456;2023-02-02T04:41:04;11.4;;;4.7;;
37365;SDS011;23239;51.504;7.456;2023-02-02T04:42:00;11.4;;;4.7;;
37365;SDS011;23239;51.504;7.456;2023-02-02T04:43:00;11.4;;;4.7;;
37365;SDS011;23239;51.504;7.456;2023-02-02T04:44:00;11.4;;;4.7;;
37365;SDS011;23239;51.504;7.456;2023-02-02T04:45:00;11.4;;;4.7;;
37365;SDS011;23239;51.504;7.456;2023-02-02T04:46:00;13.2;;;5.6;;
37365;SDS011;23239;51.504;7.456;2023-02-02T04:47:00;13.2;;;5.6;;
37365;SDS011;23239;51.504;7.456;2023-02-02T04:48:00;13.2;;;5.6;;
37365;SDS011;23239;51.504;7.456;2023-02-02T04:49:00;13.2;;;5.6;;
37365;SDS011;23239;51.504;7.456;2023-02-02T04:50:00;13.2;;;5.6;;
37365;SDS011;23239;51.504;7.456;2023-02-02T04:51:01;16.1;;;7.6;;
37365;SDS011;23239;51.504;7.456;2023-02-02T04:52:00;16.1;;;7.6;;
37365;SDS011;23239;51.504;7.456;2023-02-02T04:53:00;16.1;;;7.6;;
37365;SDS011;23239;51.504;7.456;2023-02-02T04:54:00;16.1;;;7.6;;
37365;SDS011;23239;51.504;7.456;2023-02-02T04:55:00;16.1;;;7.6;;
37365;SDS011;23239;51.504;7.456;2023-02-02T04:56:03;16.1;;;10.1;;
37365;SDS011;23239;51.504;7.456;2023-02-02T04:57:00;16.1;;;10.1;;
37365;SDS011;23239;51.504;7.456;2023-02-02T04:58:00;16.1;;;10.1;;
37365;SDS011;23239;51.504;7.456;2023-02-02T04:59:00;16.1;;;10.1;;
37365;SDS011;23239;51.504;7.456;2023-02-02T05:00:00;16.1;;;10.1;;
37365;SDS011;23239;51.504;7.456;2023-02-02T05:01:00;14.8;;;9.4;;
37365;SDS011;23239;51.504;7.456;2023-02-02T05:02:00;14.8;;;9.4;;
37365;SDS011;23239;51.504;7.456;2023-02-02T05:03:00;14.8;;;9.4;;
37365;SDS011;23239;51.504;7.456;2023-02-02T05:04:00;14.8;;;9.4;;
37365;SDS011;23239;51.504;7.456;2023-02-02T05:05:00;14.8;;;9.4;;
37365;SDS011;23239;51.504;7.456;2023-02-02T05:06:00;18.7;;;11.7;;
37365;SDS011;23239;51.504;7.456;2023-02-02T05:07:00;18.7;;;11.7;;
37365;SDS011;23239;51.504;7.456;2023-02-02T05:08:00;18.7;;;11.7;;
37365;SDS011;23239;51.504;7.456;2023-02-02T05:09:00;18.7;;;11.7;;
37365;SDS011;23239;51.504;7.456;2023-02-02T05:10:00;18.7;;;11.7;;
37365;SDS011;23239;51.504;7.456;2023-02-02T05:11:04;28.0;;;16.1;;
37365;SDS011;23239;51.504;7.456;2023-02-02T05:12:00;28.0;;;16.1;;
37365;SDS011;23239;51.504;7.456;2023-02-02T05:13:00;28.0;;;16.1;;
37365;SDS011;23239;51.504;7.456;2023-02-02T05:14:00;28.0;;;16.1;;
37365;SDS011;23239;51.504;7.456;2023-02-02T05:15:00;28.0;;;16.1;;
37365;SDS011;23239;51.504;7.456;2023-02-02T05:16:00;25.2;;;16.9;;
37365;SDS011;23239;51.504;7.456;2023-02-02T05:17:00;25.2;;;16.9;;
37365;SDS011;23239;51.504;7.456;2023-02-02T05:18:00;25.2;;;16.9;;
37365;SDS011;23239;51.504;7.456;2023-02-02T05:19:00;25.2;;;16.9;;
37365;SDS011;23239;51.504;7.456;2023-02-02T05:20:00;25.2;;;16.9;;
37365;SDS011;23239;51.504;7.456;2023-02-02T05:21:00;38.0;;;24.7;;
37365;SDS011;23239;51.504;7.456;2023-02-02T05:22:00;38.0;;;24.7;;
37365;SDS011;23239;51.504;7.456;2023-02-02T05:23:00;38.0;;;24.7;;
37365;SDS011;23239;51.504;7.456;2023-02-02T05:24:00;38.0;;;24.7;;
37365;SDS011;23239;51.504;7.456;2023-02-02T05:25:00;38.0;;;24.7;;
37365;SDS011;23239;51.504;7.456;2023-02-02T05:26:00;42.6;;;25.1;;
37365;SDS011;23239;51.504;7.456;2023-02-02T05:27:00;42.6;;;25.1;;
37365;SDS011;23239;51.504;7.456;2023-02-02T05:28:00;42.6;;;25.1;;
37365;SDS011;23239;51.504;7.456;2023-02-02T05:29:00;42.6;;;25.1;;
37365;SDS011;23239;51.504;7.456;2023-02-02T05:30:00;42.6;;;25.1;;
37365;SDS011;23239;51.504;7.456;2023-02-02T05:31:04;52.9;;;27.8;;
37365;SDS011;23239;51.504;7.456;2023-02-02T05:32:00;52.9;;;27.8;;
37365;SDS011;23239;51.504;7.456;2023-02-02T05:33:00;52.9;;;27.8;;
37365;SDS011;23239;51.504;7.456;2023-02-02T05:34:00;52.9;;;27.8;;
37365;SDS011;23239;51.504;7.456;2023-02-02T05:35:00;52.9;;;27.8;;
37365;SDS011;23239;51.504;7.456;2023-02-02T05:36:00;52.3;;;26.0;;
37365;SDS011;23239;51.504;7.456;2023-02-02T05:37:00;52.3;;;26.0;;
37365;SDS011;23239;51.504;7.456;2023-02-02T05:38:00;52.3;;;26.0;;
37365;SDS011;23239;51.504;7.456;2023-02-02T05:39:00;52.3;;;26.0;;
37365;SDS011;23239;51.504;7.456;2023-02-02T05:40:00;52.3;;;26.0;;
37365;SDS011;23239;51.504;7.456;2023-02-02T05:41:00;54.4;;;26.6;;
37365;SDS011;23239;51.504;7.456;2023-02-02T05:42:00;54.4;;;26.6;;
37365;SDS011;23239;51.504;7.456;2023-02-02T05:43:00;54.4;;;26.6;;
37365;SDS011;23239;51.504;7.456;2023-02-02T05:44:00;54.4;;;26.6;;
37365;SDS011;23239;51.504;7.456;2023-02-02T05:45:00;54.4;;;26.6;;
37365;SDS011;23239;51.504;7.456;2023-02-02T05:46:00;51.8;;;25.6;;
37365;SDS011;23239;51.504;7.456;2023-02-02T05:47:00;51.8;;;25.6;;
37365;SDS011;23239;51.504;7.456;2023-02-02T05:48:00;51.8;;;25.6;;
37365;SDS011;23239;51.504;7.456;2023-02-02T05:49:00;51.8;;;25.6;;
37365;SDS011;23239;51.504;7.456;2023-02-02T05:50:00;51.8;;;25.6;;
37365;SDS011;23239;51.504;7.456;2023-02-02T05:51:01;52.0;;;23.8;;
37365;SDS011;23239;51.504;7.456;2023-02-02T05:52:00;52.0;;;23.8;;
37365;SDS011;23239;51.504;7.456;2023-02-02T05:53:00;52.0;;;23.8;;
37365;SDS011;23239;51.504;7.456;2023-02-02T05:54:00;52.0;;;23.8;;
37365;SDS011;23239;51.504;7.456;2023-02-02T05:55:00;52.0;;;23.8;;
37365;SDS011;23239;51.504;7.456;2023-02-02T05:56:00;52.3;;;23.4;;
37365;SDS011;23239;51.504;7.456;2023-02-02T05:57:00;52.3;;;23.4;;
37365;SDS011;23239;51.504;7.456;2023-02-02T05:58:00;52.3;;;23.4;;
37365;SDS011;23239;51.504;7.456;2023-02-02T05:59:00;52.3;;;23.4;;
37365;SDS011;23239;51.504;7.456;2023-02-02T06:00:00;52.3;;;23.4;;
37365;SDS011;23239;51.504;7.456;2023-02-02T06:01:00;49.3;;;22.8;;
37365;SDS011;23239;51.504;7.456;2023-02-02T06:02:00;49.3;;;22.8;;
37365;SDS011;23239;51.504;7.456;2023-02-02T06:03:00;49.3;;;22.8;;
37365;SDS011;23239;51.504;7.456;2023-02-02T06:04:00;49.3;;;22.8;;
37365;SDS011;23239;51.504;7.456;2023-02-02T06:05:00;49.3;;;22.8;;
37365;SDS011;23239;51.504;7.456;2023-02-02T06:06:00;49.0;;;21.4;;
37365;SDS011;23239;51.504;7.456;2023-02-02T06:07:00;49.0;;;21.4;;
37365;SDS011;23239;51.504;7.456;2023-02-02T06:08:00;49.0;;;21.4;;
37365;SDS011;23239;51.504;7.456;2023-02-02T06:09:00;49.0;;;21.4;;
37365;SDS011;23239;51.504;7.456;2023-02-02T06:10:00;49.0;;;21.4;;